Have a Safe July 4th! 

Flight Track Log - Related Links

Times and Time Zones

All times are in EDT time to prevent confusion due to time zone crossing. See the N201SU flight status page for this flight to view local times or setup timezone preferences in your user account.

Time Position Orientation Groundspeed Altitude Reporting Facility
EDT Latitude Longitude Course Direction KTS MPH feet Rate Location/Type
Sun 07:58:36 AM 39.9700 -75.8319 116° Southeast 217 250 2,100  Level FAA TRACON SMA TRACON (SMA)
Sun 07:58:56 AM 39.9606 -75.8067 116° Southeast 210 242 2,900 1,650 Climbing FAA TRACON SMA TRACON (SMA)
Sun 07:59:16 AM 39.9528 -75.7861 116° Southeast 215 247 3,200 1,500 Climbing FAA TRACON SMA TRACON (SMA)
Sun 07:59:36 AM 39.9433 -75.7544 111° Southeast 259 298 3,900 3,750 Climbing FAA TRACON SMA TRACON (SMA)
Sun 07:59:56 AM 39.9344 -75.7219 110° East 274 315 5,700 4,950 Climbing FAA TRACON SMA TRACON (SMA)
Sun 08:00:16 AM 39.9250 -75.6931 113° Southeast 281 323 7,200 4,200 Climbing FAA TRACON SMA TRACON (SMA)
Sun 08:00:36 AM 39.9161 -75.6622 111° Southeast 290 334 8,500 4,050 Climbing FAA TRACON SMA TRACON (SMA)
Sun 08:00:56 AM 39.9097 -75.6217 102° East 299 344 9,900 2,250 Climbing FAA TRACON SMA TRACON (SMA)
Sun 08:01:16 AM 39.9056 -75.5889 99° East 317 365 10,000 150 Climbing FAA TRACON SMA TRACON (SMA)
Sun 08:01:36 AM 39.9017 -75.5506 98° East 330 380 10,000  Level FAA TRACON SMA TRACON (SMA)
Sun 08:01:56 AM 39.8969 -75.5031 97° East 341 392 10,000  Level FAA TRACON SMA TRACON (SMA)
Sun 08:02:16 AM 39.8922 -75.4642 99° East 350 403 10,000  Level FAA TRACON SMA TRACON (SMA)
Sun 08:02:36 AM 39.8872 -75.4250 99° East 354 407 10,000  Level FAA TRACON SMA TRACON (SMA)
Sun 08:02:56 AM 39.8808 -75.3797 100° East 349 402 10,000  Level FAA TRACON SMA TRACON (SMA)
Sun 08:03:16 AM 39.8758 -75.3403 99° East 342 394 10,000  Level FAA TRACON SMA TRACON (SMA)
Sun 08:03:36 AM 39.8711 -75.3047 100° East 326 375 10,000  Level FAA TRACON SMA TRACON (SMA)
Sun 08:03:56 AM 39.8664 -75.2656 99° East 324 373 10,000  Level FAA TRACON SMA TRACON (SMA)
Sun 08:04:16 AM 39.8611 -75.2194 98° East 336 387 10,000 750 Level FAA TRACON SMA TRACON (SMA)
Sun 08:04:36 AM 39.8558 -75.1828 101° East 334 384 10,500 1,950 Climbing FAA TRACON SMA TRACON (SMA)
Sun 08:04:56 AM 39.8511 -75.1450 99° East 349 402 11,300 2,250 Climbing FAA TRACON SMA TRACON (SMA)
Sun 08:05:16 AM 39.8447 -75.0986 100° East 342 394 12,000 1,050 Climbing FAA TRACON SMA TRACON (SMA)
Sun 08:05:36 AM 39.8394 -75.0606 100° East 349 402 12,000  Level FAA TRACON SMA TRACON (SMA)
Sun 08:05:56 AM 39.8339 -75.0197 100° East 359 413 12,000  Level FAA TRACON SMA TRACON (SMA)
Sun 08:06:16 AM 39.8272 -74.9694 100° East 365 420 12,000  Level FAA TRACON SMA TRACON (SMA)
Sun 08:06:36 AM 39.8219 -74.9289 100° East 367 422 12,000  Level FAA TRACON SMA TRACON (SMA)
Sun 08:06:56 AM 39.8167 -74.8881 100° East 369 425 12,000  Level FAA TRACON SMA TRACON (SMA)
Sun 08:07:16 AM 39.8100 -74.8397 100° East 370 426 12,000 750 Level FAA TRACON SMA TRACON (SMA)
Sun 08:07:36 AM 39.8042 -74.7967 100° East 371 427 12,500 3,900 Climbing FAA TRACON SMA TRACON (SMA)
Sun 08:07:56 AM 39.8011 -74.7561 96° East 363 418 14,600 5,700 Climbing FAA TRACON SMA TRACON (SMA)
Sun 08:08:16 AM 39.8147 -74.7108 69° East 356 410 16,300 4,350 Climbing FAA TRACON SMA TRACON (SMA)
Sun 08:08:36 AM 39.8336 -74.6808 51° Northeast 359 413 17,500 2,250 Climbing FAA TRACON SMA TRACON (SMA)
Sun 08:08:56 AM 39.8536 -74.6569 43° Northeast 347 399 17,800 1,050 Climbing FAA TRACON SMA TRACON (SMA)
Sun 08:09:16 AM 39.8667 -74.6436 38° Northeast 355 409 18,200 600 Climbing FAA TRACON SMA TRACON (SMA)
Sun 08:09:36 AM 39.8667 -74.6436 194° South 355 409 18,200 2,311 Level FAA TRACON SMA TRACON (SMA)
Sun 08:11:18 AM 40.0517 -74.4614 37° Northeast 376 433 22,900 1,811 Climbing New York Center
Sun 08:12:15 AM 40.1464 -74.3689 37° Northeast 409 471 23,000 51 Climbing New York Center
Sun 08:13:15 AM 40.2372 -74.2594 43° Northeast 426 490 23,000  Level New York Center
Sun 08:14:16 AM 40.3097 -74.1297 54° Northeast 432 497 23,000  Level New York Center
Sun 08:15:17 AM 40.3861 -74.0025 52° Northeast 438 504 23,000  Level New York Center
Sun 08:17:15 AM 40.5381 -73.7453 52° Northeast 448 516 23,000  Level Boston Center
Sun 08:18:15 AM 40.6125 -73.6075 55° Northeast 455 524 23,000  Level Boston Center
Sun 08:19:15 AM 40.6908 -73.4775 52° Northeast 460 529 23,000  Level Boston Center
Sun 08:20:15 AM 40.7669 -73.3444 53° Northeast 455 524 23,000  Level Boston Center
Sun 08:21:15 AM 40.8575 -73.2303 44° Northeast 450 518 23,000 -550 Level Boston Center
Sun 08:22:15 AM 40.9519 -73.1217 41° Northeast 444 511 21,900 -2,400 Descending Boston Center
Sun 08:23:15 AM 41.0400 -73.0181 42° Northeast 432 497 18,200 -3,000 Descending Boston Center
Sun 08:24:15 AM 41.1239 -72.9194 42° Northeast 420 483 15,900 -2,250 Descending Boston Center
Sun 08:25:15 AM 41.2056 -72.8236 41° Northeast 399 459 13,700 -1,450 Descending Boston Center
Sun 08:26:15 AM 41.2747 -72.7439 41° Northeast 376 433 13,000 -350 Descending Boston Center
Sun 08:27:15 AM 41.3664 -72.6697 31° Northeast 351 404 13,000  Level Boston Center
Sun 08:28:15 AM 41.4542 -72.6339 17° North 351 404 13,000  Level Boston Center
Sun 08:29:27 AM 41.5750 -72.5817 18° North 356 410 13,000 -500 Level Boston Center
Sun 08:30:27 AM 41.6606 -72.5289 25° Northeast 338 389 11,900 -1,000 Descending Boston Center
Sun 08:31:27 AM 41.7336 -72.4539 37° Northeast 327 376 11,000 -450 Descending Boston Center
Sun 08:32:27 AM 41.8022 -72.3733 41° Northeast 327 376 11,000 73 Level Boston Center
Sun 08:32:49 AM 41.8272 -72.3453 40° Northeast 342 394 11,100  Climbing Boston Center
Sun 08:33:27 AM 41.8731 -72.2922 41° Northeast 332 382 11,000  Descending Boston Center
Sun 08:33:50 AM 41.8981 -72.2644 40° Northeast 337 388 11,100  Climbing Boston Center
Sun 08:34:27 AM 41.9231 -72.2364 40° Northeast 332 382 11,000 -197 Descending Boston Center
Sun 08:34:51 AM 41.9708 -72.1803 41° Northeast 324 373 10,900 -500 Descending Boston Center
Sun 08:35:27 AM 42.0103 -72.1356 40° Northeast 326 375 10,500 -896 Descending Boston Center
Sun 08:35:58 AM 42.0436 -72.0992 39° Northeast 305 351 9,900 -1,167 Descending Boston Center
Sun 08:36:39 AM 42.0725 -72.0653 41° Northeast 306 352 9,100 -1,377 Descending Boston Center
Sun 08:36:59 AM 42.1036 -72.0289 41° Northeast 288 331 8,500 -1,400 Descending Boston Center
Sun 08:37:39 AM 42.1369 -71.9950 37° Northeast 279 321 7,700 -1,260 Descending Boston Center
Sun 08:38:39 AM 42.1969 -71.9272 40° Northeast 264 304 6,400 -1,250 Descending Boston Center
Sun 08:39:39 AM 42.2489 -71.8708 39° Northeast 244 281 5,200 -700 Descending Boston Center
Sun 08:40:39 AM 42.2967 -71.8142 41° Northeast 225 259 5,000 -100 Descending Boston Center
Sun 08:41:39 AM 42.3464 -71.7631 37° Northeast 219 252 5,000  Level Boston Center
Sun 08:42:39 AM 42.3897 -71.6922 50° Northeast 229 264 5,000 -150 Level Boston Center
Sun 08:43:39 AM 42.4267 -71.6158 57° Northeast 239 275 4,700 -561 Descending Boston Center
Sun 08:44:26 AM 42.4500 -71.5500 64° Northeast 241 277 4,000 -950 Descending KA90
Sun 08:45:20 AM 42.4833 -71.5000 48° Northeast 227 261 3,100 -500 Descending KA90
Sun 08:46:26 AM 42.5167 -71.4000 66° East 232 267 3,000 -50 Descending KA90
Sun 08:47:20 AM 42.5333 -71.3333 71° East 230 265 3,000 -316 Level KA90
Sun 08:48:20 AM 42.5500 -71.2500 75° East 202 232 2,400 -789 Descending KA90
Sun 08:49:14 AM 42.5000 -71.2167 154° Southeast 193 222 1,500 -833 Descending KA90
Sun 08:50:08 AM 42.4667 -71.2333 200° South 125 144 900 -667 Descending KA90
Sun 08:54:00 AM 42.4667 -71.2833 346° North  Level FlightAware Approximate
Sun 09:01:00 AM 42.4699 -71.2890 346° North  Level Estimated
Sun 09:02:00 AM 42.4667 -71.2833 346° North  Level FlightAware Approximate
Sun 09:03:00 AM 42.4699 -71.2890 346° North  Level Estimated
Sun 09:04:00 AM 42.4667 -71.2833 346° North  Level FlightAware Approximate
Sun 09:05:00 AM 42.4699 -71.2890 346° North  Level Estimated
Sun 09:06:00 AM 42.4667 -71.2833 346° North  Level FlightAware Approximate

Login

Don't have an account? Register now (free) for customized features, flight alerts, and more!